Ken Orchid — A8VZ2 — position and weather

sailwx.info

Track history (hours):
 
Tides and Currents Weather Stations Pressure Air Temp Water Temp Dewpoint Dewpoint Depression Visibility Wind Speed Wind Dir Waves Ship Positions

Ken Orchid

Last reported at 2014-Aug-30 05:33 UTC. Time now 2014-Aug-30 06:33 UTC.
Position S 34°41' E 018°53'.

Length 169 m; draft 9.4 m.

Type: Ship. MMSI: 636014693.

Date/timePositionNaut miles runAvg speedWind from/ knotsBaromVisibWave heightAir tempDewpointWater temp
2014-Aug-30 05:33S 34°41' E 018°53'1312.1
2014-Aug-30 04:29S 34°47' E 019°07'1511.7
2014-Aug-30 03:14S 34°53' E 019°23'911.5
2014-Aug-30 02:28S 34°57' E 019°32'1111.0
2014-Aug-30 01:29S 35°02' E 019°44'19 9.8
2014-Aug-29 23:32S 35°04' E 020°07'101 9.8
2014-Aug-29 13:14S 34°45' E 022°08'124 7.3
2014-Aug-28 20:13S 34°37' E 024°39'280 9.0
2014-Aug-27 13:11S 32°07' E 029°22'1011.4
2014-Aug-27 12:16S 31°59' E 029°30'911.9
2014-Aug-27 11:30S 31°52' E 029°36'2713.5
2014-Aug-27 09:31S 31°32' E 029°57'3115.7
2014-Aug-27 07:33S 31°08' E 030°20'6013.7
2014-Aug-27 03:08S 30°21' E 031°04'712.3
2014-Aug-27 02:33S 30°16' E 031°10'1212.3
2014-Aug-27 01:33S 30°06' E 031°19'1211.7
2014-Aug-27 00:33S 29°57' E 031°28'1211.4
2014-Aug-26 23:32S 29°49' E 031°37'1312.5
2014-Aug-26 22:30S 29°38' E 031°45'1413.6
2014-Aug-26 21:30S 29°28' E 031°56'1913.8
2014-Aug-26 20:07S 29°13' E 032°09'813.8
2014-Aug-26 19:33S 29°07' E 032°15'  
Track history (hours):
 
Tides and Currents Weather Stations Pressure Air Temp Water Temp Dewpoint Dewpoint Depression Visibility Wind Speed Wind Dir Waves Ship Positions

Ken Orchid

Last reported at 2014-Aug-30 05:33 UTC. Time now 2014-Aug-30 06:33 UTC.
Position S 34°41' E 018°53'.

Length 169 m; draft 9.4 m.

Type: Ship. MMSI: 636014693.

Date/timePositionNaut miles runAvg speedWind from/ knotsBaromVisibWave heightAir tempDewpointWater temp
2014-Aug-30 05:33S 34°41' E 018°53'1312.1
2014-Aug-30 04:29S 34°47' E 019°07'1511.7
2014-Aug-30 03:14S 34°53' E 019°23'911.5
2014-Aug-30 02:28S 34°57' E 019°32'1111.0
2014-Aug-30 01:29S 35°02' E 019°44'19 9.8
2014-Aug-29 23:32S 35°04' E 020°07'101 9.8
2014-Aug-29 13:14S 34°45' E 022°08'124 7.3
2014-Aug-28 20:13S 34°37' E 024°39'280 9.0
2014-Aug-27 13:11S 32°07' E 029°22'1011.4
2014-Aug-27 12:16S 31°59' E 029°30'911.9
2014-Aug-27 11:30S 31°52' E 029°36'2713.5
2014-Aug-27 09:31S 31°32' E 029°57'3115.7
2014-Aug-27 07:33S 31°08' E 030°20'6013.7
2014-Aug-27 03:08S 30°21' E 031°04'712.3
2014-Aug-27 02:33S 30°16' E 031°10'1212.3
2014-Aug-27 01:33S 30°06' E 031°19'1211.7
2014-Aug-27 00:33S 29°57' E 031°28'1211.4
2014-Aug-26 23:32S 29°49' E 031°37'1312.5
2014-Aug-26 22:30S 29°38' E 031°45'1413.6
2014-Aug-26 21:30S 29°28' E 031°56'1913.8
2014-Aug-26 20:07S 29°13' E 032°09'813.8
2014-Aug-26 19:33S 29°07' E 032°15'  

Dump ship's entire track history